Time;durP1;ratioP1;P1;durP2;ratioP2;P2;SDS_P1;SDS_P2;PMS_P1;PMS_P2;Temp;Humidity;BMP_temperature;BMP_pressure;BME280_temperature;BME280_humidity;BME280_pressure;Samples;Min_cycle;Max_cycle;Signal;HPM_P1;HPM_P2
2023/10/04 00:01:42;;;;;;;3.88;1.33;;;13.50;99.90;;;;;;5132431;27;20055;-67
2023/10/04 00:04:08;;;;;;;8.13;1.33;;;13.50;99.90;;;;;;5107647;27;20409;-67
2023/10/04 00:06:33;;;;;;;6.53;1.00;;;13.50;99.90;;;;;;5119472;27;20047;-67
2023/10/04 00:09:00;;;;;;;7.95;1.23;;;13.50;99.90;;;;;;5102954;28;20043;-67
2023/10/04 00:11:26;;;;;;;2.90;0.80;;;13.50;99.90;;;;;;5103089;28;20032;-67
2023/10/04 00:13:52;;;;;;;4.43;0.90;;;13.50;99.90;;;;;;5105210;27;20034;-67
2023/10/04 00:16:18;;;;;;;6.35;1.70;;;13.50;99.90;;;;;;5104302;28;20428;-67
2023/10/04 00:18:44;;;;;;;4.00;0.70;;;13.40;99.90;;;;;;5105960;27;20069;-67
2023/10/04 00:21:10;;;;;;;5.85;1.38;;;13.50;99.90;;;;;;5105241;28;20530;-67
2023/10/04 00:23:37;;;;;;;5.22;0.90;;;13.40;99.90;;;;;;5107568;27;20035;-67
2023/10/04 00:26:02;;;;;;;5.18;0.93;;;13.40;99.90;;;;;;5101317;27;20057;-67
2023/10/04 00:28:29;;;;;;;4.00;1.15;;;13.40;99.90;;;;;;5101526;28;20833;-67
2023/10/04 00:30:55;;;;;;;2.72;0.80;;;13.60;99.90;;;;;;5102399;28;20147;-67
2023/10/04 00:33:21;;;;;;;4.85;1.27;;;13.30;99.90;;;;;;5101823;27;20070;-67
2023/10/04 00:35:47;;;;;;;6.15;1.08;;;13.30;99.90;;;;;;5103929;28;20446;-67
2023/10/04 00:38:17;;;;;;;4.38;0.90;;;13.30;99.90;;;;;;5102678;28;20038;-67
2023/10/04 00:40:43;;;;;;;5.20;0.85;;;13.30;99.90;;;;;;5098927;27;20050;-67
2023/10/04 00:43:15;;;;;;;5.03;1.55;;;13.30;99.90;;;;;;5102804;28;20402;-67
2023/10/04 00:45:47;;;;;;;5.07;0.90;;;13.20;99.90;;;;;;5134147;27;20043;-67
2023/10/04 00:48:18;;;;;;;3.33;0.68;;;13.20;99.90;;;;;;5102745;27;20035;-67
2023/10/04 00:50:44;;;;;;;4.43;0.93;;;13.20;99.90;;;;;;5117923;27;20048;-67
2023/10/04 00:53:16;;;;;;;4.72;0.80;;;13.20;99.90;;;;;;5106365;28;20043;-67
2023/10/04 00:55:44;;;;;;;7.38;1.20;;;13.10;99.90;;;;;;5102105;28;20044;-67
2023/10/04 00:58:11;;;;;;;6.55;1.08;;;13.10;99.90;;;;;;5100092;28;20134;-67
2023/10/04 01:00:39;;;;;;;6.55;1.05;;;13.10;99.90;;;;;;5131830;27;20502;-67
2023/10/04 01:03:09;;;;;;;7.53;1.02;;;13.10;99.90;;;;;;5104246;28;20035;-67
2023/10/04 01:05:41;;;;;;;4.97;0.95;;;13.10;99.90;;;;;;5101800;28;20502;-67
2023/10/04 01:08:09;;;;;;;6.80;1.00;;;13.10;99.90;;;;;;5104159;27;20031;-67
2023/10/04 01:10:37;;;;;;;5.20;1.40;;;13.10;99.90;;;;;;5101493;28;20135;-67
2023/10/04 01:13:06;;;;;;;5.30;1.00;;;13.00;99.90;;;;;;5101783;28;20039;-67
2023/10/04 01:15:39;;;;;;;5.82;1.25;;;13.10;99.90;;;;;;5104524;27;20160;-67
2023/10/04 01:18:07;;;;;;;11.05;0.85;;;13.10;99.90;;;;;;5104269;27;20122;-67
2023/10/04 01:20:33;;;;;;;5.72;0.93;;;13.00;99.90;;;;;;5100182;28;20131;-67
2023/10/04 01:23:06;;;;;;;5.63;1.13;;;13.10;99.90;;;;;;5104971;27;20036;-67
2023/10/04 01:25:37;;;;;;;5.78;1.23;;;13.10;99.90;;;;;;5089265;28;20051;-67
2023/10/04 01:28:12;;;;;;;4.47;0.82;;;13.00;99.90;;;;;;5100446;28;20035;-67
2023/10/04 01:30:45;;;;;;;4.55;1.05;;;13.10;99.90;;;;;;5101004;28;20055;-67
2023/10/04 01:33:15;;;;;;;10.00;1.58;;;13.10;99.90;;;;;;5102167;28;20054;-67
2023/10/04 01:35:46;;;;;;;7.53;1.08;;;13.10;99.90;;;;;;5101512;28;20054;-67
2023/10/04 01:38:13;;;;;;;7.82;1.30;;;13.10;99.90;;;;;;5103946;28;20164;-67
2023/10/04 01:40:39;;;;;;;4.22;0.95;;;13.10;99.90;;;;;;5132136;27;20035;-67
2023/10/04 01:43:17;;;;;;;7.75;1.02;;;13.10;99.90;;;;;;5104212;28;20503;-67
2023/10/04 01:45:50;;;;;;;6.22;0.77;;;13.10;99.90;;;;;;5101896;28;20078;-67
2023/10/04 01:48:15;;;;;;;7.22;1.17;;;13.20;99.90;;;;;;5103085;28;20047;-67
2023/10/04 01:50:42;;;;;;;7.15;1.10;;;13.20;99.90;;;;;;5102035;28;20031;-67
2023/10/04 01:53:09;;;;;;;13.48;1.75;;;13.20;99.90;;;;;;5102450;28;20164;-67
2023/10/04 01:55:38;;;;;;;8.23;1.55;;;13.20;99.90;;;;;;5102268;28;20118;-67
2023/10/04 01:58:04;;;;;;;8.38;1.40;;;13.20;99.90;;;;;;5101183;28;20055;-67
2023/10/04 02:00:29;;;;;;;4.30;0.88;;;13.20;99.90;;;;;;5100743;28;20047;-67
2023/10/04 02:02:55;;;;;;;6.57;0.98;;;13.20;99.90;;;;;;5104595;28;20967;-67
2023/10/04 02:05:31;;;;;;;11.10;1.60;;;13.10;99.90;;;;;;5101619;28;20135;-67
2023/10/04 02:07:57;;;;;;;7.25;0.80;;;13.10;99.90;;;;;;5100676;28;20040;-67
2023/10/04 02:10:24;;;;;;;12.38;1.42;;;13.10;99.90;;;;;;5099560;28;20063;-67
2023/10/04 02:12:50;;;;;;;9.82;1.42;;;13.10;99.90;;;;;;5098866;28;20127;-67
2023/10/04 02:15:17;;;;;;;6.20;1.55;;;13.10;99.90;;;;;;5103353;28;20399;-67
2023/10/04 02:17:44;;;;;;;6.30;1.45;;;13.10;99.90;;;;;;5101154;28;20040;-67
2023/10/04 02:20:21;;;;;;;8.48;1.88;;;13.10;99.90;;;;;;5099399;28;20044;-67
2023/10/04 02:22:47;;;;;;;7.53;0.95;;;13.10;99.90;;;;;;5102886;28;20927;-67
2023/10/04 02:25:14;;;;;;;7.55;1.38;;;13.10;99.90;;;;;;5100112;28;20117;-67
2023/10/04 02:27:41;;;;;;;8.23;1.70;;;13.20;99.90;;;;;;5103428;28;20445;-67
2023/10/04 02:30:13;;;;;;;7.38;1.38;;;13.20;99.90;;;;;;5103076;28;20460;-67
2023/10/04 02:32:41;;;;;;;6.00;1.38;;;13.30;99.90;;;;;;5106012;27;20123;-67
2023/10/04 02:35:07;;;;;;;7.85;1.63;;;13.30;99.90;;;;;;5104751;28;20047;-67
2023/10/04 02:37:34;;;;;;;9.35;2.05;;;13.30;99.90;;;;;;5136765;27;20047;-67
2023/10/04 02:40:01;;;;;;;6.90;1.23;;;13.30;99.90;;;;;;5103164;27;20040;-67
2023/10/04 02:42:28;;;;;;;6.43;1.10;;;13.30;99.90;;;;;;5105004;27;20075;-67
2023/10/04 02:44:54;;;;;;;5.82;1.27;;;13.40;99.90;;;;;;5104809;28;20051;-67
2023/10/04 02:47:19;;;;;;;9.48;1.17;;;13.40;99.90;;;;;;5102440;28;20040;-67
2023/10/04 02:49:45;;;;;;;8.55;1.58;;;13.30;99.90;;;;;;5104812;28;20787;-67
2023/10/04 02:52:11;;;;;;;4.70;1.40;;;13.30;99.90;;;;;;5106447;28;20040;-67
2023/10/04 02:54:38;;;;;;;9.15;1.77;;;13.30;99.90;;;;;;5105599;28;20040;-67
2023/10/04 02:57:08;;;;;;;7.53;1.23;;;13.30;99.90;;;;;;5103843;28;20099;-67
2023/10/04 02:59:35;;;;;;;12.00;2.90;;;13.30;99.90;;;;;;5103198;27;20035;-67
2023/10/04 03:02:01;;;;;;;10.32;1.40;;;13.30;99.90;;;;;;5106462;27;20512;-67
2023/10/04 03:04:28;;;;;;;8.00;1.08;;;13.30;99.90;;;;;;5102960;27;20048;-67
2023/10/04 03:06:54;;;;;;;8.20;1.58;;;13.30;99.90;;;;;;5134361;27;20565;-67
2023/10/04 03:09:21;;;;;;;7.22;0.98;;;13.40;99.90;;;;;;5105316;27;20035;-67
2023/10/04 03:11:47;;;;;;;5.80;1.15;;;13.30;99.90;;;;;;5105614;27;20082;-67
2023/10/04 03:14:13;;;;;;;9.32;1.23;;;13.30;99.90;;;;;;5107143;27;21607;-67
2023/10/04 03:16:42;;;;;;;5.30;1.25;;;13.30;99.90;;;;;;5104483;27;20126;-67
2023/10/04 03:19:10;;;;;;;7.80;1.92;;;13.20;99.90;;;;;;5134167;27;20047;-67
2023/10/04 03:21:38;;;;;;;5.40;1.00;;;13.20;99.90;;;;;;5105176;27;20047;-67
2023/10/04 03:24:10;;;;;;;5.03;1.02;;;13.20;99.90;;;;;;5103070;27;20092;-67
2023/10/04 03:26:36;;;;;;;5.85;1.27;;;13.10;99.90;;;;;;5102592;27;20048;-67
2023/10/04 03:29:04;;;;;;;7.78;1.35;;;13.10;99.90;;;;;;5104993;28;20477;-67
2023/10/04 03:31:30;;;;;;;7.60;0.93;;;13.20;99.90;;;;;;5107594;27;20093;-67
2023/10/04 03:33:56;;;;;;;8.02;1.40;;;13.00;99.90;;;;;;5133216;27;20027;-67
2023/10/04 03:36:21;;;;;;;4.55;1.10;;;12.90;99.90;;;;;;5108004;27;20031;-67
2023/10/04 03:38:49;;;;;;;7.75;1.15;;;12.90;99.90;;;;;;5102584;27;20119;-67
2023/10/04 03:41:16;;;;;;;5.95;1.40;;;12.90;99.90;;;;;;5102218;27;20039;-67
2023/10/04 03:43:42;;;;;;;4.30;1.02;;;12.90;99.90;;;;;;5103156;27;20036;-67
2023/10/04 03:46:18;;;;;;;7.13;1.30;;;12.80;99.90;;;;;;5106776;27;20035;-67
2023/10/04 03:48:48;;;;;;;5.57;1.10;;;12.80;99.90;;;;;;5105822;27;20052;-67
2023/10/04 03:51:15;;;;;;;9.82;1.45;;;12.80;99.90;;;;;;5102413;27;20074;-67
2023/10/04 03:53:43;;;;;;;6.10;1.50;;;12.80;99.90;;;;;;5135275;27;20039;-67
2023/10/04 03:56:10;;;;;;;6.40;1.42;;;13.10;99.90;;;;;;5101908;27;20047;-67
2023/10/04 03:58:36;;;;;;;5.60;1.25;;;12.70;99.90;;;;;;5132961;27;20072;-67
2023/10/04 04:01:03;;;;;;;7.70;1.58;;;12.70;99.90;;;;;;5102029;27;20481;-67
2023/10/04 04:03:30;;;;;;;9.50;1.83;;;12.70;99.90;;;;;;5135848;27;20043;-67
2023/10/04 04:05:56;;;;;;;7.78;1.23;;;12.60;99.90;;;;;;5106718;27;20040;-67
2023/10/04 04:08:22;;;;;;;7.32;1.45;;;12.60;99.90;;;;;;5103540;27;20039;-67
2023/10/04 04:10:48;;;;;;;4.97;0.95;;;12.60;99.90;;;;;;5103948;28;20066;-67
2023/10/04 04:13:13;;;;;;;5.35;1.13;;;12.60;99.90;;;;;;5103051;28;20039;-67
2023/10/04 04:15:39;;;;;;;6.05;1.15;;;12.60;99.90;;;;;;5133533;27;20904;-67
2023/10/04 04:18:21;;;;;;;7.35;1.42;;;12.50;99.90;;;;;;5101637;28;20047;-67
2023/10/04 04:20:53;;;;;;;10.30;1.20;;;12.50;99.90;;;;;;5101112;28;20079;-67
2023/10/04 04:23:19;;;;;;;5.32;1.25;;;12.50;99.90;;;;;;5104528;27;20043;-67
2023/10/04 04:25:47;;;;;;;7.57;1.67;;;12.50;99.90;;;;;;5100914;27;20051;-67
2023/10/04 04:28:14;;;;;;;8.40;1.60;;;12.50;99.90;;;;;;5135629;27;20435;-67
2023/10/04 04:30:40;;;;;;;6.22;1.27;;;12.50;99.90;;;;;;5102598;27;20082;-67
2023/10/04 04:33:07;;;;;;;7.50;1.30;;;12.50;99.90;;;;;;5101852;27;20067;-67
2023/10/04 04:38:17;;;;;;;5.63;1.40;;;12.60;99.90;;;;;;5103610;27;20888;-67
2023/10/04 04:40:46;;;;;;;4.13;0.98;;;12.50;99.90;;;;;;5094258;27;20091;-67
2023/10/04 04:43:55;;;;;;;7.38;1.38;;;12.60;99.90;;;;;;5129183;27;20044;-67
2023/10/04 04:46:07;;;;;;;10.27;1.70;;;12.60;99.90;;;;;;5119230;27;20052;-67
2023/10/04 04:48:36;;;;;;;8.48;2.25;;;12.70;99.90;;;;;;5100226;28;20385;-67
2023/10/04 04:51:06;;;;;;;8.50;1.58;;;12.80;99.90;;;;;;5104001;28;20059;-67
2023/10/04 04:53:33;;;;;;;9.25;1.65;;;12.70;99.90;;;;;;5098866;28;20511;-67
2023/10/04 04:55:59;;;;;;;10.35;2.03;;;12.80;99.90;;;;;;5116279;27;20050;-67
2023/10/04 04:58:28;;;;;;;7.90;2.15;;;12.80;99.90;;;;;;5103896;28;20050;-67
2023/10/04 05:01:00;;;;;;;6.85;1.35;;;12.80;99.90;;;;;;5102875;28;20407;-67
2023/10/04 05:03:27;;;;;;;7.68;1.42;;;12.80;99.90;;;;;;5131444;27;21005;-67
2023/10/04 05:05:56;;;;;;;8.40;2.15;;;12.80;99.90;;;;;;5100366;28;20044;-67
2023/10/04 05:08:24;;;;;;;7.13;1.80;;;12.80;99.90;;;;;;5102094;28;20516;-67
2023/10/04 05:10:50;;;;;;;8.13;1.38;;;12.80;99.90;;;;;;5095259;28;20046;-67
2023/10/04 05:13:18;;;;;;;9.38;1.92;;;12.70;99.90;;;;;;5100835;28;20115;-67
2023/10/04 05:15:45;;;;;;;5.57;1.33;;;12.80;99.90;;;;;;5102305;28;20531;-67
2023/10/04 05:18:15;;;;;;;10.20;1.60;;;12.70;99.90;;;;;;5101242;28;20075;-67
2023/10/04 05:20:41;;;;;;;8.50;1.35;;;12.70;99.90;;;;;;5102607;28;20082;-67
2023/10/04 05:23:09;;;;;;;7.07;1.70;;;12.70;99.90;;;;;;5100486;28;20043;-67
2023/10/04 05:25:34;;;;;;;6.03;1.75;;;12.70;99.90;;;;;;5099970;28;20050;-67
2023/10/04 05:28:09;;;;;;;6.03;1.35;;;12.70;99.90;;;;;;5129829;27;20481;-67
2023/10/04 05:30:37;;;;;;;9.70;2.10;;;12.70;99.90;;;;;;5133568;27;20075;-67
2023/10/04 05:33:03;;;;;;;11.30;2.33;;;12.70;99.90;;;;;;5102429;28;20119;-67
2023/10/04 05:35:28;;;;;;;7.43;1.65;;;12.70;99.90;;;;;;5103530;28;20038;-67
2023/10/04 05:37:55;;;;;;;8.18;1.65;;;12.70;99.90;;;;;;5099924;28;20039;-67
2023/10/04 05:40:25;;;;;;;7.95;1.60;;;12.70;99.90;;;;;;5098706;28;20035;-67
2023/10/04 05:42:53;;;;;;;6.65;2.25;;;12.70;99.90;;;;;;5100089;28;20704;-67
2023/10/04 05:45:19;;;;;;;8.18;1.80;;;12.70;99.90;;;;;;5096527;28;20093;-67
2023/10/04 05:47:45;;;;;;;5.45;1.75;;;12.70;99.90;;;;;;5132095;27;20031;-67
2023/10/04 05:50:13;;;;;;;6.07;1.70;;;12.70;99.90;;;;;;5101827;28;20043;-67
2023/10/04 05:52:39;;;;;;;6.82;2.10;;;12.70;99.90;;;;;;5100508;28;20047;-67
2023/10/04 05:55:08;;;;;;;6.93;1.67;;;12.70;99.90;;;;;;5102986;28;20136;-65
2023/10/04 05:57:38;;;;;;;6.80;1.45;;;12.70;99.90;;;;;;5097039;28;20048;-66
2023/10/04 06:00:22;;;;;;;6.40;1.80;;;12.80;99.90;;;;;;5098620;28;20265;-66
2023/10/04 06:02:58;;;;;;;6.88;1.70;;;12.70;99.90;;;;;;5100645;28;20044;-66
2023/10/04 06:05:27;;;;;;;7.78;2.08;;;12.80;99.90;;;;;;5103495;27;20493;-67
2023/10/04 06:07:54;;;;;;;7.95;1.98;;;12.80;99.90;;;;;;5106373;28;20118;-67
2023/10/04 06:10:22;;;;;;;6.45;1.60;;;12.80;99.90;;;;;;5105375;27;20043;-67
2023/10/04 06:12:48;;;;;;;9.30;2.95;;;12.80;99.90;;;;;;5103442;27;20040;-67
2023/10/04 06:15:16;;;;;;;6.40;2.15;;;12.90;99.90;;;;;;5104256;27;20367;-67
2023/10/04 06:17:43;;;;;;;8.63;2.00;;;12.80;99.90;;;;;;5105314;28;20047;-67
2023/10/04 06:20:23;;;;;;;10.07;3.28;;;12.80;99.90;;;;;;5102541;28;20063;-66
2023/10/04 06:22:57;;;;;;;7.15;1.63;;;12.90;99.90;;;;;;5120699;27;20051;-66
2023/10/04 06:25:24;;;;;;;8.82;2.10;;;12.90;99.90;;;;;;5106767;27;20047;-66
2023/10/04 06:27:54;;;;;;;7.25;1.77;;;12.90;99.90;;;;;;5103210;28;20044;-66
2023/10/04 06:30:23;;;;;;;9.68;2.72;;;12.90;99.90;;;;;;5103292;27;20170;-66
2023/10/04 06:32:50;;;;;;;9.15;2.05;;;12.90;99.90;;;;;;5103426;27;20038;-66
2023/10/04 06:35:17;;;;;;;8.38;1.92;;;12.90;99.90;;;;;;5103157;27;20044;-67
2023/10/04 06:37:43;;;;;;;12.80;1.98;;;13.00;99.90;;;;;;5120140;27;20058;-66
2023/10/04 06:40:15;;;;;;;7.90;1.77;;;13.00;99.90;;;;;;5136671;27;20048;-66
2023/10/04 06:42:43;;;;;;;9.68;2.05;;;13.00;99.90;;;;;;5099789;28;20090;-66
2023/10/04 06:45:09;;;;;;;8.23;1.80;;;13.10;99.90;;;;;;5122428;27;20452;-67
2023/10/04 06:47:35;;;;;;;6.57;1.90;;;13.10;99.90;;;;;;5106328;27;20047;-66
2023/10/04 06:50:02;;;;;;;4.47;1.52;;;13.10;99.90;;;;;;5105047;27;20059;-66
2023/10/04 06:52:28;;;;;;;6.47;1.60;;;13.10;99.90;;;;;;5103677;27;20046;-66
2023/10/04 06:54:53;;;;;;;9.50;1.95;;;13.20;99.90;;;;;;5103805;28;20035;-66
2023/10/04 06:57:19;;;;;;;8.35;2.00;;;13.20;99.90;;;;;;5105313;27;20461;-66
2023/10/04 06:59:45;;;;;;;8.65;1.95;;;13.30;99.90;;;;;;5105975;27;20496;-66
2023/10/04 07:02:10;;;;;;;7.82;2.25;;;13.20;99.90;;;;;;5119867;27;20505;-66
2023/10/04 07:04:36;;;;;;;7.25;1.90;;;13.20;99.90;;;;;;5102399;27;20044;-66
2023/10/04 07:07:01;;;;;;;10.90;2.20;;;13.30;99.90;;;;;;5101040;28;20111;-66
2023/10/04 07:09:27;;;;;;;13.65;3.88;;;13.40;99.90;;;;;;5137772;27;20036;-66
2023/10/04 07:11:53;;;;;;;12.90;2.65;;;13.40;99.90;;;;;;5103315;27;20043;-66
2023/10/04 07:14:19;;;;;;;7.65;1.95;;;13.40;99.90;;;;;;5099637;28;20035;-66
2023/10/04 07:16:45;;;;;;;7.93;1.92;;;13.50;99.90;;;;;;5104538;28;20043;-66
2023/10/04 07:19:11;;;;;;;11.38;2.33;;;13.40;99.90;;;;;;5107254;27;20123;-66
2023/10/04 07:21:37;;;;;;;9.68;2.38;;;13.50;99.90;;;;;;5102247;28;20398;-66
2023/10/04 07:24:03;;;;;;;11.38;2.15;;;13.60;99.90;;;;;;5103900;28;20046;-66
2023/10/04 07:26:34;;;;;;;7.00;2.10;;;13.60;99.90;;;;;;5101786;28;20051;-66
2023/10/04 07:28:59;;;;;;;6.60;1.70;;;13.70;99.90;;;;;;5138320;27;20164;-66
2023/10/04 07:31:25;;;;;;;12.45;2.22;;;13.70;99.90;;;;;;5103977;27;20159;-66
2023/10/04 07:33:51;;;;;;;12.88;2.65;;;13.80;99.90;;;;;;5102309;28;20044;-66
2023/10/04 07:36:16;;;;;;;8.93;2.22;;;13.90;99.90;;;;;;5104385;27;20127;-66
2023/10/04 07:38:42;;;;;;;12.30;2.50;;;14.10;99.90;;;;;;5102834;27;20048;-66
2023/10/04 07:41:08;;;;;;;7.63;2.53;;;14.20;99.90;;;;;;5102784;27;20050;-66
2023/10/04 07:43:35;;;;;;;7.78;3.10;;;14.20;99.90;;;;;;5105893;28;20170;-66
2023/10/04 07:46:01;;;;;;;8.00;2.45;;;14.40;99.90;;;;;;5099273;28;20055;-66
2023/10/04 07:48:27;;;;;;;6.82;1.90;;;14.40;99.90;;;;;;5104097;27;20035;-66
2023/10/04 07:50:52;;;;;;;7.20;2.28;;;14.50;99.90;;;;;;5102494;27;20118;-66
2023/10/04 07:53:21;;;;;;;10.57;3.13;;;14.60;99.90;;;;;;5103247;28;20043;-66
2023/10/04 07:55:49;;;;;;;9.68;2.65;;;14.60;99.90;;;;;;5103698;28;20059;-66
2023/10/04 07:58:14;;;;;;;9.63;2.42;;;14.60;99.90;;;;;;5102907;27;20043;-66
2023/10/04 08:00:41;;;;;;;13.18;2.50;;;14.60;99.90;;;;;;5103440;27;20046;-66
2023/10/04 08:03:08;;;;;;;6.28;2.13;;;14.70;99.90;;;;;;5102030;27;20090;-66
2023/10/04 08:05:34;;;;;;;12.63;2.08;;;14.70;99.90;;;;;;5102753;28;20040;-66
2023/10/04 08:08:02;;;;;;;8.00;2.22;;;14.80;99.90;;;;;;5099149;28;20079;-66
2023/10/04 08:10:31;;;;;;;9.50;2.45;;;14.80;99.90;;;;;;5102456;28;20039;-67
2023/10/04 08:12:59;;;;;;;10.70;2.25;;;14.90;99.90;;;;;;5101987;28;20036;-66
2023/10/04 08:15:27;;;;;;;10.65;2.47;;;14.90;99.90;;;;;;5101122;28;20047;-66
2023/10/04 08:17:56;;;;;;;9.27;2.72;;;15.00;99.90;;;;;;5100803;28;20607;-66
2023/10/04 08:20:28;;;;;;;9.48;2.30;;;15.00;99.90;;;;;;5098810;28;20044;-66
2023/10/04 08:22:53;;;;;;;8.68;3.03;;;15.10;99.90;;;;;;5098311;28;20447;-66
2023/10/04 08:25:20;;;;;;;9.05;1.98;;;15.10;99.90;;;;;;5132777;27;20040;-66
2023/10/04 08:27:46;;;;;;;7.13;2.88;;;15.10;99.90;;;;;;5097429;28;20044;-66
2023/10/04 08:30:13;;;;;;;7.40;2.30;;;15.10;99.90;;;;;;5100357;28;20039;-66
2023/10/04 08:32:53;;;;;;;12.48;2.88;;;15.20;99.90;;;;;;5103369;28;20045;-66
2023/10/04 08:35:22;;;;;;;9.63;2.72;;;15.20;99.90;;;;;;5135087;27;20043;-66
2023/10/04 08:37:48;;;;;;;9.65;2.63;;;15.30;99.90;;;;;;5101163;28;20044;-66
2023/10/04 08:40:18;;;;;;;6.82;2.65;;;15.30;99.90;;;;;;5099937;28;20132;-66
2023/10/04 08:42:45;;;;;;;10.90;2.33;;;15.40;99.90;;;;;;5100528;28;20051;-66
2023/10/04 08:45:11;;;;;;;15.52;3.45;;;15.50;99.90;;;;;;5094678;28;20402;-66
2023/10/04 08:47:38;;;;;;;8.70;2.47;;;15.60;99.90;;;;;;5098229;28;20040;-66
2023/10/04 08:50:09;;;;;;;10.60;2.78;;;15.60;99.90;;;;;;5101700;28;20563;-66
2023/10/04 08:52:36;;;;;;;10.77;2.45;;;15.60;99.90;;;;;;5104557;28;20050;-66
2023/10/04 08:55:07;;;;;;;8.77;2.67;;;15.70;99.90;;;;;;5107502;28;20444;-66
2023/10/04 08:57:39;;;;;;;9.18;2.38;;;15.70;99.90;;;;;;5100534;28;20078;-66
2023/10/04 09:00:13;;;;;;;10.60;2.60;;;15.80;99.90;;;;;;5133718;27;20126;-66
2023/10/04 09:02:43;;;;;;;12.85;3.20;;;15.80;99.90;;;;;;5102752;28;20065;-66
2023/10/04 09:05:11;;;;;;;8.35;2.60;;;15.90;99.90;;;;;;5100853;28;20049;-66
2023/10/04 09:07:38;;;;;;;10.32;3.20;;;15.90;99.90;;;;;;5103676;28;20048;-66
2023/10/04 09:10:06;;;;;;;7.63;3.20;;;16.00;99.90;;;;;;5100504;28;20162;-66
2023/10/04 09:12:31;;;;;;;7.38;2.60;;;16.00;99.90;;;;;;5100785;28;20081;-66
2023/10/04 09:14:57;;;;;;;11.38;2.70;;;16.10;99.90;;;;;;5104509;28;20639;-66
2023/10/04 09:17:25;;;;;;;9.57;2.75;;;16.10;99.90;;;;;;5100255;28;20043;-66
2023/10/04 09:19:52;;;;;;;11.85;2.67;;;16.20;99.90;;;;;;5133134;27;20478;-66
2023/10/04 09:22:29;;;;;;;11.23;3.05;;;16.20;99.90;;;;;;5114627;27;20036;-66
2023/10/04 09:24:56;;;;;;;12.45;3.08;;;16.30;99.90;;;;;;5082990;28;20035;-66
2023/10/04 09:27:22;;;;;;;12.55;2.80;;;16.30;99.90;;;;;;5099536;28;20036;-66
2023/10/04 09:29:49;;;;;;;11.25;2.90;;;16.30;99.90;;;;;;5098427;28;20110;-66
2023/10/04 09:32:16;;;;;;;11.00;3.08;;;16.40;99.90;;;;;;5100200;27;20229;-66
2023/10/04 09:35:03;;;;;;;11.50;3.80;;;16.50;99.90;;;;;;5101446;28;20126;-66
2023/10/04 09:37:29;;;;;;;10.57;3.35;;;16.60;99.90;;;;;;5101020;28;20042;-66
2023/10/04 09:40:12;;;;;;;10.98;3.75;;;16.70;99.90;;;;;;5100540;28;20462;-66
2023/10/04 09:42:49;;;;;;;11.50;3.20;;;16.80;99.90;;;;;;5099534;28;20040;-66
2023/10/04 09:45:15;;;;;;;12.82;3.63;;;16.80;99.90;;;;;;5132333;27;20401;-66
2023/10/04 09:47:42;;;;;;;9.23;3.20;;;17.00;99.90;;;;;;5099727;28;20450;-66
2023/10/04 09:50:23;;;;;;;8.65;2.90;;;16.90;99.90;;;;;;5129194;27;20687;-66
2023/10/04 09:52:49;;;;;;;8.82;3.50;;;17.10;99.90;;;;;;5101286;28;20043;-66
2023/10/04 09:55:15;;;;;;;12.95;3.38;;;17.20;99.90;;;;;;5106120;28;20040;-66
2023/10/04 09:57:43;;;;;;;11.55;4.00;;;17.30;99.90;;;;;;5100361;28;20047;-66
2023/10/04 10:00:17;;;;;;;8.57;2.65;;;17.30;99.90;;;;;;5100745;28;20036;-66
2023/10/04 10:02:49;;;;;;;8.30;2.92;;;17.40;99.90;;;;;;5103179;28;20043;-66
2023/10/04 10:05:26;;;;;;;14.25;3.60;;;17.50;99.90;;;;;;5102299;28;20047;-66
2023/10/04 10:07:54;;;;;;;10.80;2.83;;;17.50;99.90;;;;;;5103911;28;20109;-66
2023/10/04 10:10:24;;;;;;;13.50;4.55;;;17.60;99.90;;;;;;5098474;28;20040;-66
2023/10/04 10:12:50;;;;;;;12.13;4.13;;;17.70;99.90;;;;;;5101878;28;20036;-66
2023/10/04 10:15:18;;;;;;;13.45;3.58;;;17.70;99.90;;;;;;5101385;28;20097;-66
2023/10/04 10:17:46;;;;;;;8.85;3.42;;;17.80;99.90;;;;;;5098346;28;20048;-66
2023/10/04 10:20:12;;;;;;;11.50;3.40;;;17.80;99.90;;;;;;5113138;28;20062;-66
2023/10/04 10:22:57;;;;;;;10.80;3.88;;;17.80;99.90;;;;;;5101555;28;20044;-66
2023/10/04 10:25:25;;;;;;;13.75;4.22;;;17.80;99.90;;;;;;5138200;27;20054;-66
2023/10/04 10:27:55;;;;;;;8.73;2.90;;;17.70;99.90;;;;;;5098552;28;20043;-66
2023/10/04 10:30:21;;;;;;;8.65;2.90;;;17.80;99.90;;;;;;5134442;27;20084;-66
2023/10/04 10:32:55;;;;;;;16.23;3.85;;;17.70;99.90;;;;;;5101490;28;20032;-66
2023/10/04 10:35:46;;;;;;;10.02;3.67;;;17.70;99.90;;;;;;5085466;28;20043;-66
2023/10/04 10:38:27;;;;;;;8.52;2.83;;;17.70;99.90;;;;;;5118802;27;20035;-66
2023/10/04 10:40:53;;;;;;;10.32;2.95;;;17.60;99.90;;;;;;5132149;27;20092;-66
2023/10/04 10:43:18;;;;;;;9.25;3.40;;;17.60;99.90;;;;;;5100301;28;20040;-66
2023/10/04 10:45:44;;;;;;;7.28;2.80;;;17.60;99.90;;;;;;5104303;28;20055;-66
2023/10/04 10:48:13;;;;;;;10.40;4.03;;;17.70;99.90;;;;;;5104627;28;20051;-66
2023/10/04 10:50:41;;;;;;;8.85;2.95;;;17.70;99.90;;;;;;5101500;28;20040;-66
2023/10/04 10:53:10;;;;;;;8.95;3.28;;;17.80;99.90;;;;;;5120387;27;20035;-66
2023/10/04 10:55:40;;;;;;;13.65;4.18;;;17.70;99.90;;;;;;5105103;27;20040;-66
2023/10/04 10:58:07;;;;;;;11.15;3.63;;;17.60;99.90;;;;;;5113035;27;20077;-66
2023/10/04 11:00:35;;;;;;;8.43;3.08;;;17.60;99.90;;;;;;5103175;28;20055;-66
2023/10/04 11:03:04;;;;;;;8.63;3.10;;;17.50;99.90;;;;;;5105302;27;20048;-66
2023/10/04 11:05:30;;;;;;;8.45;3.15;;;17.50;99.90;;;;;;5122452;27;20040;-66
2023/10/04 11:07:56;;;;;;;12.50;3.85;;;17.60;99.90;;;;;;5102991;28;20111;-66
2023/10/04 11:10:23;;;;;;;13.13;4.35;;;17.50;99.90;;;;;;5102326;28;20114;-66
2023/10/04 11:12:57;;;;;;;10.02;3.53;;;17.50;99.90;;;;;;5102836;28;20043;-66
2023/10/04 11:15:23;;;;;;;9.90;3.65;;;17.40;99.90;;;;;;5106087;27;20054;-66
2023/10/04 11:17:50;;;;;;;9.02;3.05;;;17.40;99.90;;;;;;5106826;27;20086;-66
2023/10/04 11:20:21;;;;;;;7.95;3.55;;;17.40;99.90;;;;;;5106950;27;20039;-66
2023/10/04 11:22:51;;;;;;;8.57;3.25;;;17.40;99.90;;;;;;5104018;28;20051;-66
2023/10/04 11:25:18;;;;;;;11.82;3.40;;;17.50;99.90;;;;;;5108176;27;20063;-66
2023/10/04 11:27:47;;;;;;;12.15;4.03;;;17.40;99.90;;;;;;5104482;28;20056;-66
2023/10/04 11:30:14;;;;;;;8.95;3.78;;;17.50;99.90;;;;;;5136075;27;20453;-66
2023/10/04 11:32:40;;;;;;;10.75;4.15;;;17.40;99.90;;;;;;5104576;27;20048;-66
2023/10/04 11:35:11;;;;;;;8.60;3.10;;;17.40;99.90;;;;;;5107584;27;20092;-66
2023/10/04 11:37:44;;;;;;;8.93;3.60;;;17.50;99.90;;;;;;5101870;28;20079;-66
2023/10/04 11:40:12;;;;;;;7.85;3.50;;;17.50;99.90;;;;;;5103243;27;20028;-66
2023/10/04 11:42:38;;;;;;;8.25;3.25;;;17.50;99.90;;;;;;5102839;28;20069;-66
2023/10/04 11:45:17;;;;;;;10.60;3.70;;;17.50;99.90;;;;;;5102639;28;20055;-66
2023/10/04 11:47:43;;;;;;;8.77;2.53;;;17.50;99.90;;;;;;5102433;27;20042;-66
2023/10/04 11:50:10;;;;;;;10.07;3.75;;;17.50;99.90;;;;;;5137603;27;20048;-66
2023/10/04 11:52:36;;;;;;;6.72;2.70;;;17.40;99.90;;;;;;5102270;28;20035;-66
2023/10/04 11:55:04;;;;;;;10.73;3.42;;;17.40;99.90;;;;;;5138174;27;20067;-66
2023/10/04 11:57:37;;;;;;;8.35;2.92;;;17.40;99.90;;;;;;5101574;27;20111;-66
2023/10/04 12:00:17;;;;;;;10.57;2.88;;;17.40;99.90;;;;;;5102794;28;20040;-66
2023/10/04 12:02:42;;;;;;;9.55;3.13;;;17.30;99.90;;;;;;5101696;28;20343;-66
2023/10/04 12:05:08;;;;;;;12.70;4.43;;;17.30;99.90;;;;;;5116239;27;20051;-66
2023/10/04 12:07:34;;;;;;;9.23;3.05;;;17.30;99.90;;;;;;5102534;28;20467;-66
2023/10/04 12:09:59;;;;;;;9.75;2.92;;;17.40;99.90;;;;;;5100401;28;20032;-66
2023/10/04 12:12:25;;;;;;;5.85;2.65;;;17.30;99.90;;;;;;5101585;28;20031;-66
2023/10/04 12:14:51;;;;;;;11.50;3.53;;;17.30;99.90;;;;;;5092651;28;20044;-66
2023/10/04 12:17:17;;;;;;;7.85;3.25;;;17.30;99.90;;;;;;5103807;27;20386;-66
2023/10/04 12:19:42;;;;;;;13.63;4.57;;;17.30;99.90;;;;;;5100624;28;20036;-66
2023/10/04 12:22:11;;;;;;;10.07;4.07;;;17.40;99.90;;;;;;5102719;27;20048;-66
2023/10/04 12:24:38;;;;;;;7.75;2.78;;;17.40;99.90;;;;;;5104407;27;20039;-66
2023/10/04 12:27:08;;;;;;;6.32;2.80;;;17.40;99.90;;;;;;5103024;27;20160;-66
2023/10/04 12:29:37;;;;;;;8.63;2.83;;;17.40;99.90;;;;;;5099681;28;20043;-66
2023/10/04 12:32:04;;;;;;;11.02;2.75;;;17.50;99.90;;;;;;5102580;27;20062;-66
2023/10/04 12:34:30;;;;;;;11.65;3.00;;;17.50;99.90;;;;;;5100734;28;20045;-66
2023/10/04 12:36:56;;;;;;;8.90;2.67;;;17.60;99.90;;;;;;5135786;27;20126;-66
2023/10/04 12:39:23;;;;;;;12.07;3.70;;;17.60;99.90;;;;;;5103557;27;20036;-66
2023/10/04 12:41:49;;;;;;;7.40;2.40;;;17.60;99.90;;;;;;5111630;27;20047;-66
2023/10/04 12:44:19;;;;;;;8.05;3.03;;;17.60;99.90;;;;;;5137176;27;20043;-66
2023/10/04 12:46:45;;;;;;;6.85;2.80;;;17.60;99.90;;;;;;5101969;27;20143;-66
2023/10/04 12:49:11;;;;;;;7.68;2.97;;;17.60;99.90;;;;;;5101562;28;20481;-66
2023/10/04 12:51:37;;;;;;;8.10;3.97;;;17.60;99.90;;;;;;5102971;28;20038;-66